EmailTwitter


Observations de surface / France / LFMK (07635)

Régions: Québec | Canada | États-Unis | Europe | France | UK | Ailleurs
Station
Affichage
Infos & localisation pour LFMK (07635) | Aide pour décoder les METARs

Observations prises le 2020-04-06 à 18H00 UTC à CARCASSONNE/SALV, FR (LFMK)

Température: 14.0 Celsius

Point de rosée: 3.0 Celsius

Humidité relative: 47%

Facteur vent: 12.

Vents: Est à 31 km/h ou 17 noeuds.

Pression au niveau moyen de la mer: 102.30 kilopascals.

Observation METAR:

LFMK 061800Z AUTO 08017KT CAVOK 14/03 Q1023 TEMPO BKN008=